チタ の空港の天気 - METARとTAF

チタ・カダラ空港 ( UIAA / HTA ) - ロシア チタ
飛行場実況気象(Metar)
観測時間07/22 00:00 YAKT (07/21 15:00 UTC)
風向・風速西南西 4m/s
視程9000m
天気現象
-
気温17℃
湿度94%
気圧997hPa
METARUIAA 211500Z AUTO 24004MPS 9000 ///049/// 17/16 Q0997 RMK QFE690/0920
過去の天気等 Google飛行場航空写真 Wunderground天気予報

過去48時間のMETAR

飛行場予報(TAF)
発表時間: 7/21 23:00 YAKT (7/21 14:00 UTC)
予報対象時間: 22日0時 YAKT ~ 23日0時 YAKT
風向・風速南西 3m/s 瞬間風速 8m/s
視程10km以上
天気現象弱いしゅう雨
全天の4割程度の雲 雲底高度 180m
全天の8割程度の積乱雲 雲底高度 610m
22日0時 YAKT ~ 22日12時 YAKT に一時的に
風向・風速西北西 5m/s 瞬間風速 13m/s
視程3100m
天気現象弱い雷雨
TAF UIAA 211400Z 2115/2215 23003G08MPS 9999 -SHRA SCT006 BKN020CB
TEMPO 2115/2203 30005G13MPS 3100 -TSRA